createdAt,value
2018-09-04T00:00:40.129Z,20.48
2018-09-04T00:01:40.115Z,20.47
2018-09-04T00:02:40.105Z,20.38
2018-09-04T00:03:40.102Z,20.33
2018-09-04T00:04:40.096Z,20.36
2018-09-04T00:05:40.108Z,20.42
2018-09-04T00:06:40.072Z,20.43
2018-09-04T00:07:40.078Z,20.36
2018-09-04T00:08:40.049Z,20.26
2018-09-04T00:09:40.055Z,20.38
2018-09-04T00:10:40.042Z,20.35
2018-09-04T00:11:40.037Z,20.38
2018-09-04T00:12:40.023Z,20.32
2018-09-04T00:13:40.017Z,20.43
2018-09-04T00:14:40.039Z,20.41
2018-09-04T00:15:40.033Z,20.36
2018-09-04T00:16:39.984Z,20.39
2018-09-04T00:17:39.981Z,20.35
2018-09-04T00:18:39.975Z,20.41
2018-09-04T00:19:39.978Z,20.39
2018-09-04T00:20:39.988Z,20.36
2018-09-04T00:21:39.952Z,20.43
2018-09-04T00:22:39.938Z,20.42
2018-09-04T00:23:39.934Z,20.31
2018-09-04T00:24:39.927Z,20.38
2018-09-04T00:25:39.948Z,20.35
2018-09-04T00:26:39.911Z,20.43
2018-09-04T00:27:39.889Z,20.35
2018-09-04T00:28:39.890Z,20.26
2018-09-04T00:29:39.885Z,20.31
2018-09-04T00:30:39.903Z,20.24
2018-09-04T00:31:39.873Z,20.16
2018-09-04T00:32:39.863Z,20.21
2018-09-04T00:33:39.847Z,20.23
2018-09-04T00:34:39.850Z,20.13
2018-09-04T00:35:39.862Z,20.16
2018-09-04T00:36:39.829Z,20.17
2018-09-04T00:37:39.846Z,20.13
2018-09-04T00:38:39.812Z,20.16
2018-09-04T00:39:39.800Z,20.21
2018-09-04T00:40:39.791Z,20.10
2018-09-04T00:41:39.788Z,20.05
2018-09-04T00:42:39.767Z,20.17
2018-09-04T00:43:39.760Z,20.14
2018-09-04T00:44:39.753Z,20.17
2018-09-04T00:45:39.742Z,20.08
2018-09-04T00:46:39.737Z,20.13
2018-09-04T00:47:39.731Z,20.11
2018-09-04T00:48:39.707Z,20.13
2018-09-04T00:49:39.700Z,20.08
2018-09-04T00:50:39.700Z,20.14
2018-09-04T00:51:39.713Z,20.05
2018-09-04T00:52:39.715Z,20.13
2018-09-04T00:53:39.677Z,20.11
2018-09-04T00:54:39.671Z,20.08
2018-09-04T00:55:39.662Z,20.11
2018-09-04T00:56:39.648Z,20.16
2018-09-04T00:57:39.658Z,20.08
2018-09-04T00:58:39.628Z,20.11
2018-09-04T00:59:39.622Z,20.10
2018-09-04T01:00:39.607Z,20.06
2018-09-04T01:01:39.597Z,20.05
2018-09-04T01:02:39.633Z,20.10
2018-09-04T01:03:39.598Z,20.08
2018-09-04T01:04:39.582Z,20.17
2018-09-04T01:05:39.569Z,20.08
2018-09-04T01:06:39.555Z,20.10
2018-09-04T01:07:39.609Z,20.13
2018-09-04T01:08:39.538Z,20.02
2018-09-04T01:09:39.539Z,20.10
2018-09-04T01:10:39.530Z,20.16
2018-09-04T01:11:39.520Z,20.05
2018-09-04T01:12:39.504Z,19.96
2018-09-04T01:13:39.536Z,20.08
2018-09-04T01:14:39.490Z,19.98
2018-09-04T01:15:39.489Z,19.91
2018-09-04T01:16:39.473Z,19.94
2018-09-04T01:17:39.496Z,19.92
2018-09-04T01:18:39.448Z,19.91
2018-09-04T01:19:39.446Z,19.91
2018-09-04T01:20:39.467Z,19.91
2018-09-04T01:21:39.434Z,19.95
2018-09-04T01:22:39.417Z,19.88
2018-09-04T01:23:39.482Z,19.91
2018-09-04T01:24:39.409Z,19.94
2018-09-04T01:25:39.384Z,19.92
2018-09-04T01:26:39.385Z,19.86
2018-09-04T01:27:39.372Z,19.81
2018-09-04T01:28:39.361Z,19.88
2018-09-04T01:29:39.397Z,19.92
2018-09-04T01:30:39.342Z,19.92
2018-09-04T01:31:39.332Z,19.87
2018-09-04T01:32:39.332Z,19.87
2018-09-04T01:33:39.338Z,19.87
2018-09-04T01:34:39.341Z,19.83
2018-09-04T01:35:39.313Z,19.88
2018-09-04T01:36:39.298Z,19.91
2018-09-04T01:37:39.310Z,19.92
2018-09-04T01:38:39.272Z,19.84
2018-09-04T01:39:39.271Z,19.88
2018-09-04T01:40:39.264Z,19.91
2018-09-04T01:41:39.253Z,19.94
2018-09-04T01:42:39.269Z,19.94
2018-09-04T01:43:39.238Z,19.91
2018-09-04T01:44:39.227Z,19.80
2018-09-04T01:45:39.219Z,19.78
2018-09-04T01:46:39.201Z,19.76
2018-09-04T01:47:39.262Z,19.63
2018-09-04T01:48:39.193Z,19.61
2018-09-04T01:49:39.182Z,19.63
2018-09-04T01:50:39.176Z,19.65
2018-09-04T01:51:39.162Z,19.62
2018-09-04T01:52:39.160Z,19.66
2018-09-04T01:53:39.146Z,19.62
2018-09-04T01:54:39.168Z,19.59
2018-09-04T01:55:39.136Z,19.58
2018-09-04T01:56:39.118Z,19.68
2018-09-04T01:57:39.120Z,19.63
2018-09-04T01:58:39.095Z,19.63
2018-09-04T01:59:39.096Z,19.59
2018-09-04T02:00:39.115Z,19.61
2018-09-04T02:01:39.077Z,19.61
2018-09-04T02:02:39.063Z,19.55
2018-09-04T02:03:39.063Z,19.41
2018-09-04T02:04:39.054Z,19.44
2018-09-04T02:05:39.060Z,19.50
2018-09-04T02:06:39.031Z,19.47
2018-09-04T02:07:39.021Z,19.51
2018-09-04T02:08:39.023Z,19.51
2018-09-04T02:09:39.081Z,19.44
2018-09-04T02:10:38.989Z,19.44
2018-09-04T02:11:38.995Z,19.46
2018-09-04T02:12:38.972Z,19.47
2018-09-04T02:13:38.964Z,19.39
2018-09-04T02:14:38.963Z,19.37
2018-09-04T02:15:38.976Z,19.40
2018-09-04T02:16:38.935Z,19.39
2018-09-04T02:17:38.959Z,19.43
2018-09-04T02:18:38.921Z,19.40
2018-09-04T02:19:38.923Z,19.39
2018-09-04T02:20:38.895Z,19.43
2018-09-04T02:21:38.898Z,19.39
2018-09-04T02:22:38.941Z,19.31
2018-09-04T02:23:38.871Z,19.32
2018-09-04T02:24:38.862Z,19.33
2018-09-04T02:25:38.849Z,19.29
2018-09-04T02:26:38.854Z,19.29
2018-09-04T02:27:38.834Z,19.32
2018-09-04T02:28:38.828Z,19.28
2018-09-04T02:29:38.822Z,19.29
2018-09-04T02:30:38.812Z,19.22
2018-09-04T02:31:38.837Z,19.22
2018-09-04T02:32:38.792Z,19.23
2018-09-04T02:33:38.790Z,19.28
2018-09-04T02:34:38.766Z,19.18
2018-09-04T02:35:38.770Z,19.18
2018-09-04T02:36:38.752Z,19.16
2018-09-04T02:37:38.735Z,19.16
2018-09-04T02:38:38.727Z,19.25
2018-09-04T02:39:38.722Z,19.13
2018-09-04T02:40:38.774Z,19.11
2018-09-04T02:41:38.707Z,19.14
2018-09-04T02:42:38.701Z,19.11
2018-09-04T02:43:38.692Z,19.13
2018-09-04T02:44:38.681Z,19.06
2018-09-04T02:45:38.682Z,19.13
2018-09-04T02:46:38.699Z,19.04
2018-09-04T02:47:38.647Z,19.10
2018-09-04T02:48:38.644Z,19.14
2018-09-04T02:49:38.678Z,18.95
2018-09-04T02:50:38.650Z,19.08
2018-09-04T02:51:38.622Z,18.99
2018-09-04T02:52:38.595Z,18.98
2018-09-04T02:53:38.597Z,19.10
2018-09-04T02:54:38.594Z,19.08
2018-09-04T02:55:38.608Z,19.06
2018-09-04T02:56:38.567Z,19.06
2018-09-04T02:57:38.589Z,19.10
2018-09-04T02:58:38.572Z,19.08
2018-09-04T02:59:38.541Z,19.06
2018-09-04T03:00:38.526Z,18.92
2018-09-04T03:01:38.534Z,18.98
2018-09-04T03:02:38.545Z,18.94
2018-09-04T03:03:38.506Z,18.90
2018-09-04T03:04:38.493Z,18.81
2018-09-04T03:05:38.483Z,18.78
2018-09-04T03:06:38.473Z,18.73
2018-09-04T03:07:38.492Z,18.90
2018-09-04T03:08:38.824Z,18.84
2018-09-04T03:09:38.447Z,18.85
2018-09-04T03:10:38.439Z,18.80
2018-09-04T03:11:38.429Z,18.85
2018-09-04T03:12:38.416Z,18.81
2018-09-04T03:13:38.531Z,18.91
2018-09-04T03:14:38.432Z,18.82
2018-09-04T03:15:38.388Z,18.88
2018-09-04T03:16:38.374Z,18.81
2018-09-04T03:17:38.362Z,18.65
2018-09-04T03:18:38.361Z,18.73
2018-09-04T03:19:38.627Z,18.67
2018-09-04T03:20:38.339Z,18.69
2018-09-04T03:21:38.327Z,18.70
2018-09-04T03:22:38.330Z,18.70
2018-09-04T03:23:38.304Z,18.70
2018-09-04T03:24:38.293Z,18.69
2018-09-04T03:25:38.290Z,18.76
2018-09-04T03:26:38.282Z,18.75
2018-09-04T03:27:38.338Z,18.63
2018-09-04T03:28:38.258Z,18.65
2018-09-04T03:29:38.257Z,18.67
2018-09-04T03:30:38.246Z,18.65
2018-09-04T03:31:38.234Z,18.69
2018-09-04T03:32:38.224Z,18.73
2018-09-04T03:33:38.221Z,18.73
2018-09-04T03:34:38.211Z,18.66
2018-09-04T03:35:38.198Z,18.69
2018-09-04T03:36:38.188Z,18.69
2018-09-04T03:37:38.183Z,18.58
2018-09-04T03:38:38.171Z,18.51
2018-09-04T03:39:38.147Z,18.54
2018-09-04T03:40:38.146Z,18.58
2018-09-04T03:41:38.141Z,18.51
2018-09-04T03:42:38.163Z,18.63
2018-09-04T03:43:38.196Z,18.55
2018-09-04T03:44:38.116Z,18.65
2018-09-04T03:45:38.105Z,18.72
2018-09-04T03:46:38.095Z,18.70
2018-09-04T03:47:38.080Z,18.72
2018-09-04T03:48:38.074Z,18.63
2018-09-04T03:49:38.097Z,18.73
2018-09-04T03:50:38.047Z,18.70
2018-09-04T03:51:38.038Z,18.73
2018-09-04T03:52:38.036Z,18.72
2018-09-04T03:53:38.025Z,18.75
2018-09-04T03:54:38.071Z,18.75
2018-09-04T03:55:38.003Z,18.67
2018-09-04T03:56:37.994Z,18.65
2018-09-04T03:57:37.986Z,18.62
2018-09-04T03:58:37.968Z,18.69
2018-09-04T03:59:37.961Z,18.58
2018-09-04T04:00:37.959Z,18.50
2018-09-04T04:01:37.953Z,18.57
2018-09-04T04:02:37.937Z,18.52
2018-09-04T04:03:37.925Z,18.47
2018-09-04T04:04:38.293Z,18.37
2018-09-04T04:05:37.913Z,18.27
2018-09-04T04:06:37.898Z,18.29
2018-09-04T04:07:37.882Z,18.27
2018-09-04T04:08:37.878Z,18.30
2018-09-04T04:09:37.871Z,18.32
2018-09-04T04:10:37.870Z,18.39
2018-09-04T04:11:37.853Z,18.42
2018-09-04T04:12:37.834Z,18.33
2018-09-04T04:13:37.831Z,18.42
2018-09-04T04:14:37.817Z,18.41
2018-09-04T04:15:37.838Z,18.45
2018-09-04T04:16:37.830Z,18.48
2018-09-04T04:17:37.793Z,18.47
2018-09-04T04:18:37.785Z,18.48
2018-09-04T04:19:37.763Z,18.48
2018-09-04T04:20:37.765Z,18.55
2018-09-04T04:21:37.786Z,18.52
2018-09-04T04:22:37.748Z,18.52
2018-09-04T04:23:37.732Z,18.54
2018-09-04T04:24:37.723Z,18.72
2018-09-04T04:25:37.713Z,18.58
2018-09-04T04:26:37.740Z,18.69
2018-09-04T04:27:37.694Z,18.70
2018-09-04T04:28:37.692Z,18.67
2018-09-04T04:29:37.672Z,18.72
2018-09-04T04:30:37.653Z,18.67
2018-09-04T04:31:37.680Z,18.60
2018-09-04T04:32:37.641Z,18.65
2018-09-04T04:33:37.628Z,18.55
2018-09-04T04:34:37.620Z,18.54
2018-09-04T04:35:37.609Z,18.51
2018-09-04T04:36:37.595Z,18.55
2018-09-04T04:37:37.605Z,18.58
2018-09-04T04:38:37.592Z,18.58
2018-09-04T04:39:37.577Z,18.55
2018-09-04T04:40:37.568Z,18.50
2018-09-04T04:41:37.593Z,18.54
2018-09-04T04:42:37.543Z,18.54
2018-09-04T04:43:37.541Z,18.54
2018-09-04T04:44:37.519Z,18.65
2018-09-04T04:45:37.516Z,18.69
2018-09-04T04:46:37.510Z,18.60
2018-09-04T04:47:37.532Z,18.65
2018-09-04T04:48:37.490Z,18.70
2018-09-04T04:49:37.473Z,18.67
2018-09-04T04:50:37.466Z,18.65
2018-09-04T04:51:37.461Z,18.69
2018-09-04T04:52:37.482Z,18.67
2018-09-04T04:53:37.436Z,18.72
2018-09-04T04:54:37.432Z,18.66
2018-09-04T04:55:37.421Z,18.69
2018-09-04T04:56:37.403Z,18.69
2018-09-04T04:57:37.755Z,18.65
2018-09-04T04:58:37.396Z,18.69
2018-09-04T04:59:37.380Z,18.69
2018-09-04T05:00:37.375Z,18.67
2018-09-04T05:01:37.362Z,18.69
2018-09-04T05:02:37.357Z,18.69
2018-09-04T05:03:37.375Z,18.70
2018-09-04T05:04:37.325Z,18.72
2018-09-04T05:05:37.326Z,18.67
2018-09-04T05:06:37.323Z,18.72
2018-09-04T05:07:37.335Z,18.67
2018-09-04T05:08:37.307Z,18.62
2018-09-04T05:09:37.295Z,18.70
2018-09-04T05:10:37.285Z,18.73
2018-09-04T05:11:37.351Z,18.70
2018-09-04T05:12:37.262Z,18.67
2018-09-04T05:13:37.239Z,18.72
2018-09-04T05:14:37.241Z,18.70
2018-09-04T05:15:37.224Z,18.72
2018-09-04T05:16:37.225Z,18.73
2018-09-04T05:17:37.211Z,18.63
2018-09-04T05:18:37.203Z,18.70
2018-09-04T05:19:37.241Z,18.72
2018-09-04T05:20:37.172Z,18.67
2018-09-04T05:21:37.178Z,18.75
2018-09-04T05:22:37.243Z,18.80
2018-09-04T05:23:37.154Z,18.75
2018-09-04T05:24:37.143Z,18.78
2018-09-04T05:25:37.160Z,18.80
2018-09-04T05:26:37.119Z,18.84
2018-09-04T05:27:37.113Z,18.94
2018-09-04T05:28:37.106Z,18.92
2018-09-04T05:29:37.340Z,18.88
2018-09-04T05:30:37.089Z,18.88
2018-09-04T05:31:37.079Z,18.94
2018-09-04T05:32:37.066Z,18.88
2018-09-04T05:33:37.061Z,18.81
2018-09-04T05:34:37.083Z,18.88
2018-09-04T05:35:37.038Z,18.81
2018-09-04T05:36:37.075Z,18.78
2018-09-04T05:37:37.017Z,18.80
2018-09-04T05:38:37.012Z,18.80
2018-09-04T05:39:37.029Z,18.85
2018-09-04T05:40:37.020Z,18.75
2018-09-04T05:41:36.981Z,18.78
2018-09-04T05:42:36.974Z,18.78
2018-09-04T05:43:36.964Z,18.85
2018-09-04T05:44:36.952Z,18.82
2018-09-04T05:45:36.947Z,18.85
2018-09-04T05:46:36.937Z,18.82
2018-09-04T05:47:36.918Z,18.85
2018-09-04T05:48:36.919Z,18.88
2018-09-04T05:49:36.939Z,18.94
2018-09-04T05:50:36.926Z,18.88
2018-09-04T05:51:36.887Z,18.94
2018-09-04T05:52:36.869Z,18.94
2018-09-04T05:53:36.868Z,18.99
2018-09-04T05:54:36.882Z,19.02
2018-09-04T05:55:36.851Z,18.98
2018-09-04T05:56:36.837Z,18.90
2018-09-04T05:57:36.836Z,19.10
2018-09-04T05:58:36.823Z,19.04
2018-09-04T05:59:36.806Z,19.06
2018-09-04T06:00:36.801Z,19.00
2018-09-04T06:01:36.791Z,19.06
2018-09-04T06:02:36.783Z,19.00
2018-09-04T06:03:36.768Z,19.02
2018-09-04T06:04:36.810Z,19.06
2018-09-04T06:05:36.748Z,19.02
2018-09-04T06:06:36.739Z,19.08
2018-09-04T06:07:36.739Z,19.07
2018-09-04T06:08:36.717Z,18.98
2018-09-04T06:09:36.720Z,19.10
2018-09-04T06:10:36.712Z,19.08
2018-09-04T06:11:36.707Z,18.98
2018-09-04T06:12:36.703Z,19.04
2018-09-04T06:13:36.692Z,19.10
2018-09-04T06:14:36.667Z,19.00
2018-09-04T06:15:36.730Z,19.11
2018-09-04T06:16:36.646Z,19.06
2018-09-04T06:17:36.642Z,19.08
2018-09-04T06:18:36.626Z,19.08
2018-09-04T06:19:36.624Z,19.08
2018-09-04T06:20:36.614Z,19.14
2018-09-04T06:21:36.636Z,19.16
2018-09-04T06:22:36.593Z,19.21
2018-09-04T06:23:36.590Z,19.21
2018-09-04T06:24:36.569Z,19.18
2018-09-04T06:25:36.558Z,19.16
2018-09-04T06:26:36.593Z,19.13
2018-09-04T06:27:36.578Z,19.21
2018-09-04T06:28:36.543Z,19.18
2018-09-04T06:29:36.600Z,19.25
2018-09-04T06:30:36.526Z,19.32
2018-09-04T06:31:36.504Z,19.29
2018-09-04T06:32:36.507Z,19.32
2018-09-04T06:33:36.521Z,19.46
2018-09-04T06:34:36.512Z,19.36
2018-09-04T06:35:36.487Z,19.37
2018-09-04T06:36:36.581Z,19.41
2018-09-04T06:37:36.461Z,19.37
2018-09-04T06:38:36.456Z,19.44
2018-09-04T06:39:36.442Z,19.46
2018-09-04T06:40:36.488Z,19.43
2018-09-04T06:41:36.423Z,19.36
2018-09-04T06:42:36.416Z,19.43
2018-09-04T06:43:36.404Z,19.48
2018-09-04T06:44:36.398Z,19.58
2018-09-04T06:45:36.386Z,19.62
2018-09-04T06:46:36.453Z,19.62
2018-09-04T06:47:36.382Z,19.69
2018-09-04T06:48:36.361Z,19.62
2018-09-04T06:49:36.353Z,19.62
2018-09-04T06:50:36.337Z,19.62
2018-09-04T06:51:36.342Z,19.62
2018-09-04T06:52:36.333Z,19.62
2018-09-04T06:53:36.314Z,19.59
2018-09-04T06:54:36.350Z,19.66
2018-09-04T06:55:36.288Z,19.68
2018-09-04T06:56:36.295Z,19.66
2018-09-04T06:57:36.347Z,19.66
2018-09-04T06:58:36.269Z,19.66
2018-09-04T06:59:36.425Z,19.69
2018-09-04T07:00:36.261Z,19.76
2018-09-04T07:01:36.241Z,19.71
2018-09-04T07:02:36.242Z,19.74
2018-09-04T07:03:36.266Z,19.76
2018-09-04T07:04:36.236Z,19.78
2018-09-04T07:05:36.220Z,19.91
2018-09-04T07:06:36.209Z,19.92
2018-09-04T07:07:36.197Z,19.86
2018-09-04T07:08:36.195Z,19.96
2018-09-04T07:09:36.190Z,19.88
2018-09-04T07:10:36.185Z,19.87
2018-09-04T07:11:36.173Z,19.95
2018-09-04T07:12:36.184Z,19.91
2018-09-04T07:13:36.147Z,19.92
2018-09-04T07:14:36.146Z,19.91
2018-09-04T07:15:36.169Z,19.94
2018-09-04T07:16:36.128Z,19.98
2018-09-04T07:17:36.112Z,19.99
2018-09-04T07:18:36.110Z,20.06
2018-09-04T07:19:36.096Z,19.99
2018-09-04T07:20:36.083Z,19.99
2018-09-04T07:21:36.088Z,20.03
2018-09-04T07:22:36.078Z,19.98
2018-09-04T07:23:36.064Z,20.01
2018-09-04T07:24:36.063Z,19.96
2018-09-04T07:25:36.052Z,20.05
2018-09-04T07:26:36.048Z,20.02
2018-09-04T07:27:36.038Z,20.06
2018-09-04T07:28:36.015Z,20.11
2018-09-04T07:29:36.074Z,20.13
2018-09-04T07:30:35.997Z,20.20
2018-09-04T07:31:35.999Z,20.33
2018-09-04T07:32:35.980Z,20.35
2018-09-04T07:33:35.973Z,20.28
2018-09-04T07:34:35.971Z,20.32
2018-09-04T07:35:35.984Z,20.42
2018-09-04T07:36:35.961Z,20.38
2018-09-04T07:37:35.954Z,20.54
2018-09-04T07:38:35.933Z,20.59
2018-09-04T07:39:35.981Z,20.57
2018-09-04T07:40:35.928Z,20.52
2018-09-04T07:41:35.926Z,20.58
2018-09-04T07:42:35.904Z,20.59
2018-09-04T07:43:35.895Z,20.58
2018-09-04T07:44:35.926Z,20.64
2018-09-04T07:45:35.910Z,20.67
2018-09-04T07:46:35.872Z,20.79
2018-09-04T07:47:35.865Z,20.76
2018-09-04T07:48:35.862Z,20.89
2018-09-04T07:49:35.851Z,20.87
2018-09-04T07:50:35.892Z,20.85
2018-09-04T07:51:35.833Z,20.87
2018-09-04T07:52:35.815Z,20.92
2018-09-04T07:53:35.834Z,20.85
2018-09-04T07:54:35.812Z,20.87
2018-09-04T07:55:35.807Z,20.91
2018-09-04T07:56:35.807Z,20.80
2018-09-04T07:57:35.791Z,20.84
2018-09-04T07:58:35.787Z,20.91
2018-09-04T07:59:35.760Z,21.03
2018-09-04T08:00:35.756Z,21.01
2018-09-04T08:01:35.755Z,21.03
2018-09-04T08:02:35.773Z,21.06
2018-09-04T08:03:35.739Z,21.07
2018-09-04T08:04:35.731Z,21.01
2018-09-04T08:05:35.725Z,21.09
2018-09-04T08:06:35.727Z,21.09
2018-09-04T08:07:35.704Z,21.07
2018-09-04T08:08:35.700Z,21.12
2018-09-04T08:09:35.702Z,21.10
2018-09-04T08:10:35.683Z,21.09
2018-09-04T08:11:35.680Z,21.14
2018-09-04T08:12:35.673Z,21.16
2018-09-04T08:13:35.662Z,21.31
2018-09-04T08:14:35.654Z,21.35
2018-09-04T08:15:35.643Z,21.54
2018-09-04T08:16:35.709Z,21.58
2018-09-04T08:17:35.628Z,21.62
2018-09-04T08:18:35.628Z,21.62
2018-09-04T08:19:35.616Z,21.65
2018-09-04T08:20:35.645Z,21.50
2018-09-04T08:21:35.604Z,21.54
2018-09-04T08:22:36.710Z,21.50
2018-09-04T08:23:35.580Z,21.64
2018-09-04T08:24:35.802Z,21.64
2018-09-04T08:25:35.565Z,21.64
2018-09-04T08:26:36.016Z,21.62
2018-09-04T08:27:35.608Z,21.77
2018-09-04T08:28:35.637Z,21.74
2018-09-04T08:29:35.555Z,21.77
2018-09-04T08:30:35.529Z,21.88
2018-09-04T08:31:35.860Z,22.28
2018-09-04T08:32:35.511Z,22.45
2018-09-04T08:33:35.536Z,22.49
2018-09-04T08:34:35.498Z,22.49
2018-09-04T08:35:35.489Z,22.39
2018-09-04T08:36:35.826Z,22.30
2018-09-04T08:37:35.516Z,22.35
2018-09-04T08:38:35.476Z,22.27
2018-09-04T08:39:35.774Z,22.35
2018-09-04T08:40:35.460Z,22.30
2018-09-04T08:41:35.451Z,22.33
2018-09-04T08:42:35.466Z,22.40
2018-09-04T08:43:35.474Z,22.37
2018-09-04T08:44:35.443Z,22.31
2018-09-04T08:45:35.420Z,22.40
2018-09-04T08:46:35.422Z,22.45
2018-09-04T08:47:35.410Z,22.49
2018-09-04T08:48:35.463Z,22.60
2018-09-04T08:49:35.400Z,22.61
2018-09-04T08:50:35.418Z,22.62
2018-09-04T08:51:35.388Z,22.65
2018-09-04T08:52:35.375Z,22.64
2018-09-04T08:53:35.388Z,22.64
2018-09-04T08:54:35.374Z,22.60
2018-09-04T08:55:35.388Z,22.60
2018-09-04T08:56:35.360Z,22.51
2018-09-04T08:57:35.354Z,22.43
2018-09-04T08:58:35.387Z,22.40
2018-09-04T08:59:35.335Z,22.39
2018-09-04T09:00:35.362Z,22.40
2018-09-04T09:01:35.323Z,22.33
2018-09-04T09:02:35.319Z,22.43
2018-09-04T09:03:35.363Z,22.42
2018-09-04T09:04:35.294Z,22.37
2018-09-04T09:05:35.343Z,22.40
2018-09-04T09:06:35.286Z,22.40
2018-09-04T09:07:35.285Z,22.40
2018-09-04T09:08:35.312Z,22.36
2018-09-04T09:09:35.296Z,22.37
2018-09-04T09:10:35.266Z,22.37
2018-09-04T09:11:35.262Z,22.39
2018-09-04T09:12:35.248Z,22.57
2018-09-04T09:13:35.247Z,22.49
2018-09-04T09:14:35.260Z,22.61
2018-09-04T09:15:35.259Z,22.52
2018-09-04T09:16:35.238Z,22.58
2018-09-04T09:17:35.215Z,22.52
2018-09-04T09:18:35.441Z,22.58
2018-09-04T09:19:35.206Z,22.65
2018-09-04T09:20:35.226Z,22.64
2018-09-04T09:21:35.204Z,22.64
2018-09-04T09:22:35.187Z,22.70
2018-09-04T09:23:35.182Z,22.67
2018-09-04T09:24:35.173Z,22.73
2018-09-04T09:25:35.238Z,22.75
2018-09-04T09:26:35.164Z,22.70
2018-09-04T09:27:35.147Z,22.65
2018-09-04T09:28:35.139Z,22.68
2018-09-04T09:29:35.133Z,22.62
2018-09-04T09:30:35.128Z,22.68
2018-09-04T09:31:35.130Z,22.79
2018-09-04T09:32:35.113Z,22.77
2018-09-04T09:33:35.115Z,22.86
2018-09-04T09:34:35.097Z,22.86
2018-09-04T09:35:35.098Z,22.86
2018-09-04T09:36:35.155Z,22.79
2018-09-04T09:37:35.092Z,22.76
2018-09-04T09:38:35.088Z,22.73
2018-09-04T09:39:35.075Z,22.85
2018-09-04T09:40:35.073Z,22.86
2018-09-04T09:41:35.099Z,22.82
2018-09-04T09:42:35.057Z,22.90
2018-09-04T09:43:35.060Z,22.90
2018-09-04T09:44:35.055Z,22.86
2018-09-04T09:45:35.034Z,22.95
2018-09-04T09:46:35.063Z,22.94
2018-09-04T09:47:35.047Z,22.94
2018-09-04T09:48:35.029Z,22.98
2018-09-04T09:49:35.013Z,23.00
2018-09-04T09:50:35.019Z,22.94
2018-09-04T09:51:34.996Z,22.95
2018-09-04T09:52:35.037Z,22.94
2018-09-04T09:53:35.169Z,22.91
2018-09-04T09:54:34.984Z,22.97
2018-09-04T09:55:34.978Z,22.90
2018-09-04T09:56:34.973Z,22.98
2018-09-04T09:57:35.026Z,23.04
2018-09-04T09:58:34.960Z,23.15
2018-09-04T09:59:35.061Z,23.05
2018-09-04T10:00:34.944Z,23.13
2018-09-04T10:01:34.993Z,23.12
2018-09-04T10:02:34.940Z,23.12
2018-09-04T10:03:34.984Z,23.04
2018-09-04T10:04:34.910Z,23.25
2018-09-04T10:05:34.915Z,23.22
2018-09-04T10:06:34.904Z,23.23
2018-09-04T10:07:34.932Z,23.23
2018-09-04T10:08:34.903Z,23.16
2018-09-04T10:09:34.924Z,23.25
2018-09-04T10:10:34.969Z,23.27
2018-09-04T10:11:34.881Z,23.25
2018-09-04T10:12:34.877Z,23.32
2018-09-04T10:13:34.865Z,23.28
2018-09-04T10:14:34.881Z,23.46
2018-09-04T10:15:34.889Z,23.50
2018-09-04T10:16:34.849Z,23.65
2018-09-04T10:17:34.841Z,23.70
2018-09-04T10:18:34.837Z,23.79
2018-09-04T10:19:34.831Z,23.84
2018-09-04T10:20:34.878Z,23.87
2018-09-04T10:21:34.810Z,23.83
2018-09-04T10:22:34.804Z,23.84
2018-09-04T10:23:34.807Z,23.85
2018-09-04T10:24:34.798Z,23.85
2018-09-04T10:25:34.798Z,23.91
2018-09-04T10:26:34.876Z,24.02
2018-09-04T10:27:34.796Z,24.02
2018-09-04T10:28:34.783Z,24.00
2018-09-04T10:29:34.795Z,23.95
2018-09-04T10:30:34.797Z,23.95
2018-09-04T10:31:34.758Z,23.91
2018-09-04T10:32:34.755Z,23.88
2018-09-04T10:33:34.753Z,23.88
2018-09-04T10:34:34.745Z,23.94
2018-09-04T10:35:34.751Z,23.90
2018-09-04T10:36:34.733Z,23.97
2018-09-04T10:37:34.733Z,23.97
2018-09-04T10:38:34.723Z,24.02
2018-09-04T10:39:34.850Z,23.95
2018-09-04T10:40:35.136Z,24.00
2018-09-04T10:41:34.700Z,24.12
2018-09-04T10:42:34.704Z,24.09
2018-09-04T10:43:34.706Z,24.08
2018-09-04T10:44:34.690Z,24.06
2018-09-04T10:45:34.688Z,23.95
2018-09-04T10:46:34.690Z,23.98
2018-09-04T10:47:34.684Z,24.12
2018-09-04T10:48:34.790Z,24.12
2018-09-04T10:49:34.661Z,24.00
2018-09-04T10:50:34.667Z,23.94
2018-09-04T10:51:34.691Z,24.05
2018-09-04T10:52:34.649Z,23.95
2018-09-04T10:53:34.652Z,23.97
2018-09-04T10:54:34.666Z,23.98
2018-09-04T10:55:34.655Z,24.00
2018-09-04T10:56:34.621Z,24.09
2018-09-04T10:57:34.638Z,24.08
2018-09-04T10:58:34.610Z,24.09
2018-09-04T10:59:34.606Z,24.12
2018-09-04T11:00:34.595Z,24.22
2018-09-04T11:01:34.601Z,24.22
2018-09-04T11:02:34.592Z,24.32
2018-09-04T11:03:34.968Z,24.42
2018-09-04T11:04:34.586Z,24.35
2018-09-04T11:05:34.578Z,24.34
2018-09-04T11:06:34.560Z,24.39
2018-09-04T11:07:34.568Z,24.32
2018-09-04T11:08:34.559Z,24.50
2018-09-04T11:09:34.893Z,24.58
2018-09-04T11:10:34.552Z,24.64
2018-09-04T11:11:34.539Z,24.62
2018-09-04T11:12:34.538Z,24.58
2018-09-04T11:13:34.527Z,24.65
2018-09-04T11:14:34.559Z,24.71
2018-09-04T11:15:34.526Z,24.65
2018-09-04T11:16:34.518Z,24.68
2018-09-04T11:17:34.519Z,24.65
2018-09-04T11:18:34.519Z,24.65
2018-09-04T11:19:34.533Z,24.69
2018-09-04T11:20:34.503Z,24.62
2018-09-04T11:21:34.491Z,24.68
2018-09-04T11:22:34.490Z,24.67
2018-09-04T11:23:34.491Z,24.83
2018-09-04T11:24:34.515Z,24.67
2018-09-04T11:25:34.479Z,24.76
2018-09-04T11:26:34.474Z,24.69
2018-09-04T11:27:34.462Z,24.68
2018-09-04T11:28:34.453Z,24.71
2018-09-04T11:29:34.519Z,24.69
2018-09-04T11:30:34.479Z,24.69
2018-09-04T11:31:34.444Z,24.73
2018-09-04T11:32:34.441Z,24.84
2018-09-04T11:33:34.430Z,24.73
2018-09-04T11:34:34.435Z,24.80
2018-09-04T11:35:34.481Z,24.88
2018-09-04T11:36:34.418Z,24.91
2018-09-04T11:37:34.415Z,24.87
2018-09-04T11:38:34.412Z,24.98
2018-09-04T11:39:34.400Z,24.90
2018-09-04T11:40:34.462Z,24.98
2018-09-04T11:41:34.405Z,24.95
2018-09-04T11:42:34.390Z,24.98
2018-09-04T11:43:34.433Z,25.00
2018-09-04T11:44:34.377Z,25.02
2018-09-04T11:45:34.374Z,25.08
2018-09-04T11:46:34.433Z,25.00
2018-09-04T11:47:34.364Z,24.99
2018-09-04T11:48:34.364Z,25.02
2018-09-04T11:49:34.358Z,25.06
2018-09-04T11:50:34.353Z,25.08
2018-09-04T11:51:34.350Z,25.08
2018-09-04T11:52:34.373Z,25.20
2018-09-04T11:53:34.336Z,25.15
2018-09-04T11:54:34.332Z,25.15
2018-09-04T11:55:34.327Z,25.17
2018-09-04T11:56:34.381Z,25.24
2018-09-04T11:57:34.319Z,25.28
2018-09-04T11:58:34.306Z,25.24
2018-09-04T11:59:34.318Z,25.24
2018-09-04T12:00:34.312Z,25.35
2018-09-04T12:01:34.300Z,25.33
2018-09-04T12:02:34.328Z,25.38
2018-09-04T12:03:34.291Z,25.33
2018-09-04T12:04:34.288Z,25.46
2018-09-04T12:05:34.292Z,25.39
2018-09-04T12:06:34.331Z,25.52
2018-09-04T12:07:34.304Z,25.55
2018-09-04T12:08:34.308Z,25.50
2018-09-04T12:09:34.261Z,25.65
2018-09-04T12:10:34.258Z,25.76
2018-09-04T12:11:34.255Z,25.82
2018-09-04T12:12:34.466Z,25.88
2018-09-04T12:13:34.255Z,25.85
2018-09-04T12:14:34.245Z,25.97
2018-09-04T12:15:34.238Z,25.91
2018-09-04T12:16:34.241Z,26.05
2018-09-04T12:17:34.231Z,25.94
2018-09-04T12:18:34.252Z,25.95
2018-09-04T12:19:34.217Z,26.13
2018-09-04T12:20:34.230Z,26.23
2018-09-04T12:21:34.224Z,26.44
2018-09-04T12:22:34.222Z,26.66
2018-09-04T12:23:34.254Z,26.92
2018-09-04T12:24:34.208Z,27.27
2018-09-04T12:25:34.215Z,27.28
2018-09-04T12:26:34.209Z,27.40
2018-09-04T12:27:34.213Z,27.50
2018-09-04T12:28:34.247Z,27.31
2018-09-04T12:29:34.212Z,27.25
2018-09-04T12:30:34.203Z,27.29
2018-09-04T12:31:34.202Z,27.25
2018-09-04T12:32:34.248Z,27.27
2018-09-04T12:33:34.186Z,27.14
2018-09-04T12:34:34.200Z,27.14
2018-09-04T12:35:34.181Z,27.10
2018-09-04T12:36:34.221Z,27.14
2018-09-04T12:37:34.183Z,27.17
2018-09-04T12:38:34.222Z,27.10
2018-09-04T12:39:34.178Z,27.06
2018-09-04T12:40:34.179Z,27.06
2018-09-04T12:41:34.174Z,27.02
2018-09-04T12:42:34.225Z,26.99
2018-09-04T12:43:34.526Z,26.94
2018-09-04T12:44:34.168Z,26.82
2018-09-04T12:45:34.174Z,26.69
2018-09-04T12:46:34.160Z,26.62
2018-09-04T12:47:34.171Z,26.62
2018-09-04T12:48:34.249Z,26.63
2018-09-04T12:49:34.195Z,26.52
2018-09-04T12:50:34.160Z,26.67
2018-09-04T12:51:34.156Z,26.75
2018-09-04T12:52:34.148Z,26.76